Time;durP1;ratioP1;P1;durP2;ratioP2;P2;SDS_P1;SDS_P2;PMS_P1;PMS_P2;Temp;Humidity;BMP_temperature;BMP_pressure;BME280_temperature;BME280_humidity;BME280_pressure;Samples;Min_cycle;Max_cycle;Signal;HPM_P1;HPM_P2
2024/01/08 00:00:05;;;;;;;1.17;0.95;;;;;;;0.42;61.59;100019.78;336131;28;13647;-75
2024/01/08 00:00:18;;;;;;;1.05;0.73;;;;;;;0.25;61.48;100016.97;339959;28;4606;-76
2024/01/08 00:00:30;;;;;;;1.20;0.80;;;;;;;0.31;61.50;100017.06;338380;28;18112;-75
2024/01/08 00:00:42;;;;;;;0.98;0.75;;;;;;;0.39;61.59;100018.03;339867;28;5242;-75
2024/01/08 00:00:54;;;;;;;0.73;0.73;;;;;;;0.43;61.64;100020.66;338322;28;4597;-75
2024/01/08 00:01:09;;;;;;;0.82;0.77;;;;;;;0.49;62.15;100015.63;330159;28;17758;-76
2024/01/08 00:01:23;;;;;;;2.63;0.98;;;;;;;0.42;62.18;100008.69;335196;28;16368;-76
2024/01/08 00:01:37;;;;;;;2.88;1.00;;;;;;;0.46;62.71;100016.44;334160;28;17918;-75
2024/01/08 00:01:50;;;;;;;1.63;0.98;;;;;;;0.51;62.52;100019.91;338503;28;5249;-76
2024/01/08 00:02:02;;;;;;;1.67;1.00;;;;;;;0.52;62.41;100016.50;335308;28;17988;-75
2024/01/08 00:02:15;;;;;;;1.52;1.00;;;;;;;0.50;62.47;100017.34;338035;28;5501;-75
2024/01/08 00:02:27;;;;;;;1.05;0.82;;;;;;;0.48;62.59;100024.13;336268;28;13268;-75
2024/01/08 00:02:39;;;;;;;1.00;0.80;;;;;;;0.52;62.45;100020.78;334216;28;5215;-75
2024/01/08 00:02:51;;;;;;;1.40;0.90;;;;;;;0.50;62.73;100018.19;336957;28;13767;-75
2024/01/08 00:03:03;;;;;;;1.23;0.77;;;;;;;0.63;62.25;100014.13;339760;28;18466;-75
2024/01/08 00:03:15;;;;;;;3.05;0.90;;;;;;;0.62;62.91;100012.38;338780;28;4698;-75
2024/01/08 00:03:27;;;;;;;3.22;1.15;;;;;;;0.62;63.12;100012.38;337025;28;19270;-75
2024/01/08 00:03:39;;;;;;;2.15;1.02;;;;;;;0.63;62.56;100014.13;340152;28;4692;-75
2024/01/08 00:03:52;;;;;;;1.00;0.90;;;;;;;0.66;62.41;100015.84;336330;28;17810;-75
2024/01/08 00:04:04;;;;;;;1.13;0.80;;;;;;;0.70;62.42;100015.91;338711;28;4575;-75
2024/01/08 00:04:18;;;;;;;1.42;0.80;;;;;;;0.62;62.09;100025.16;338504;28;17800;-75
2024/01/08 00:04:30;;;;;;;1.58;0.82;;;;;;;0.61;62.54;100023.47;342839;28;4724;-76
2024/01/08 00:04:42;;;;;;;1.20;0.80;;;;;;;0.62;62.13;100022.63;337104;28;19081;-75
2024/01/08 00:04:55;;;;;;;1.27;0.88;;;;;;;0.62;62.34;100016.66;339466;28;5529;-76
2024/01/08 00:05:07;;;;;;;1.20;0.90;;;;;;;0.68;62.28;100016.72;337762;28;16641;-75
2024/01/08 00:05:19;;;;;;;1.02;0.90;;;;;;;0.70;62.23;100020.16;339995;28;4499;-75
2024/01/08 00:05:31;;;;;;;1.02;0.80;;;;;;;0.56;61.91;100022.53;339730;28;4751;-75
2024/01/08 00:05:43;;;;;;;1.50;1.00;;;;;;;0.44;62.02;100012.13;335730;28;17291;-75
2024/01/08 00:05:56;;;;;;;2.10;1.15;;;;;;;0.51;62.03;100014.81;339746;28;4651;-75
2024/01/08 00:06:08;;;;;;;2.00;1.15;;;;;;;0.49;62.37;100015.63;337332;28;18264;-76
2024/01/08 00:06:20;;;;;;;1.50;1.10;;;;;;;0.51;62.07;100019.91;339995;28;4719;-75
2024/01/08 00:06:32;;;;;;;1.20;0.93;;;;;;;0.55;62.87;100023.38;337996;28;5599;-75
2024/01/08 00:06:44;;;;;;;1.42;1.17;;;;;;;0.60;62.48;100024.28;339722;28;4708;-76
2024/01/08 00:06:56;;;;;;;1.38;1.20;;;;;;;0.62;62.41;100014.94;339736;28;5525;-75
2024/01/08 00:07:08;;;;;;;1.38;1.20;;;;;;;0.60;62.32;100014.06;336689;28;19639;-76
2024/01/08 00:07:20;;;;;;;1.27;1.10;;;;;;;0.61;63.27;100020.91;339731;28;4572;-75
2024/01/08 00:07:32;;;;;;;1.65;1.10;;;;;;;0.64;63.34;100025.19;336900;28;10559;-75
2024/01/08 00:07:44;;;;;;;1.92;1.05;;;;;;;0.67;63.32;100017.59;339847;28;4572;-77
2024/01/08 00:07:56;;;;;;;2.05;1.08;;;;;;;0.67;63.05;100031.22;341114;28;4683;-75
2024/01/08 00:08:08;;;;;;;1.15;0.88;;;;;;;0.63;63.21;100016.69;338906;28;16306;-75
2024/01/08 00:08:21;;;;;;;1.05;0.80;;;;;;;0.61;62.68;100025.19;339885;28;5070;-75
2024/01/08 00:08:33;;;;;;;1.35;0.90;;;;;;;0.64;63.01;100025.19;336495;28;4780;-75
2024/01/08 00:08:45;;;;;;;1.50;0.90;;;;;;;0.68;62.91;100020.13;336937;28;18601;-77
2024/01/08 00:08:57;;;;;;;1.30;0.98;;;;;;;0.73;62.53;100023.63;338704;28;4612;-75
2024/01/08 00:09:09;;;;;;;1.65;1.13;;;;;;;0.77;63.57;100017.72;337053;28;18012;-75
2024/01/08 00:09:21;;;;;;;1.73;1.20;;;;;;;0.76;63.60;100021.09;339741;28;5220;-75
2024/01/08 00:09:33;;;;;;;1.50;1.20;;;;;;;0.84;63.61;100022.91;335529;28;13587;-75
2024/01/08 00:09:45;;;;;;;1.52;1.20;;;;;;;0.82;62.85;100016.91;337593;28;4488;-76
2024/01/08 00:09:57;;;;;;;1.45;1.10;;;;;;;0.90;62.86;100020.41;333150;28;5864;-76
2024/01/08 00:10:10;;;;;;;1.23;0.93;;;;;;;0.88;62.61;100020.41;334984;28;17835;-75
2024/01/08 00:10:22;;;;;;;1.33;0.80;;;;;;;0.91;62.91;100024.72;339598;28;5746;-75
2024/01/08 00:10:36;;;;;;;1.42;0.90;;;;;;;0.92;62.79;100022.16;338292;28;18148;-75
2024/01/08 00:10:48;;;;;;;1.42;0.90;;;;;;;0.93;63.05;100020.47;339086;28;5256;-75
2024/01/08 00:11:00;;;;;;;1.15;0.93;;;;;;;0.89;62.79;100016.16;341240;28;4633;-75
2024/01/08 00:11:12;;;;;;;1.20;1.00;;;;;;;0.88;62.55;100014.44;340837;28;4741;-75
2024/01/08 00:11:24;;;;;;;1.00;0.90;;;;;;;0.82;62.49;100025.44;337432;28;10976;-76
2024/01/08 00:11:36;;;;;;;1.05;0.90;;;;;;;0.69;62.34;100018.47;338140;28;17347;-76
2024/01/08 00:11:48;;;;;;;0.88;0.82;;;;;;;0.72;62.77;100019.34;338929;28;5535;-75
2024/01/08 00:12:00;;;;;;;1.80;0.80;;;;;;;0.76;62.00;100021.09;337542;28;18215;-76
2024/01/08 00:12:12;;;;;;;1.65;0.75;;;;;;;0.85;62.17;100019.53;340199;28;4819;-76
2024/01/08 00:12:24;;;;;;;1.55;0.80;;;;;;;0.84;61.88;100015.22;337432;28;16006;-76
2024/01/08 00:12:36;;;;;;;0.90;0.80;;;;;;;0.66;61.18;100019.25;339624;28;5604;-76
2024/01/08 00:12:48;;;;;;;0.90;0.75;;;;;;;0.67;62.12;100021.00;334581;28;4576;-75
2024/01/08 00:13:00;;;;;;;1.77;0.88;;;;;;;0.52;62.20;100025.88;336585;28;17954;-76
2024/01/08 00:13:12;;;;;;;2.78;0.88;;;;;;;0.56;61.63;100023.41;339378;28;4784;-76
2024/01/08 00:13:24;;;;;;;2.80;0.90;;;;;;;0.62;62.54;100022.63;336584;28;16526;-75
2024/01/08 00:13:36;;;;;;;1.48;0.80;;;;;;;0.61;61.68;100015.78;338622;28;4816;-75
2024/01/08 00:13:49;;;;;;;1.27;0.80;;;;;;;0.58;61.89;100023.41;338658;28;4820;-75
2024/01/08 00:14:01;;;;;;;1.27;0.90;;;;;;;0.56;62.45;100023.41;335833;28;17982;-75
2024/01/08 00:14:13;;;;;;;1.58;1.15;;;;;;;0.52;62.69;100019.06;334148;28;5441;-76
2024/01/08 00:14:25;;;;;;;1.50;1.30;;;;;;;0.59;63.10;100022.59;336843;28;17990;-75
2024/01/08 00:14:39;;;;;;;1.73;1.42;;;;;;;0.60;62.83;100019.19;340986;28;4554;-76
2024/01/08 00:14:51;;;;;;;1.73;1.15;;;;;;;0.64;62.78;100015.81;337990;28;18839;-75
2024/01/08 00:15:03;;;;;;;1.52;1.08;;;;;;;0.70;62.18;100015.06;341133;28;4548;-76
2024/01/08 00:15:15;;;;;;;1.40;1.05;;;;;;;0.69;62.45;100014.19;337053;28;19532;-75
2024/01/08 00:15:27;;;;;;;1.90;1.30;;;;;;;0.63;62.50;100014.13;340329;28;5071;-75
2024/01/08 00:15:39;;;;;;;2.13;1.40;;;;;;;0.66;63.36;100016.69;340145;28;5338;-75
2024/01/08 00:15:51;;;;;;;1.83;1.17;;;;;;;0.70;63.97;100017.59;337644;28;17886;-75
2024/01/08 00:16:03;;;;;;;1.60;1.00;;;;;;;0.69;63.24;100016.75;340612;28;5716;-75
2024/01/08 00:16:15;;;;;;;1.75;0.98;;;;;;;0.67;62.90;100015.88;335349;28;18010;-75
2024/01/08 00:16:29;;;;;;;1.50;0.90;;;;;;;0.67;63.08;100013.31;339590;28;4686;-75
2024/01/08 00:16:41;;;;;;;1.38;1.00;;;;;;;0.74;62.18;100016.81;337105;28;18236;-76
2024/01/08 00:16:53;;;;;;;1.75;1.10;;;;;;;0.70;61.99;100009.94;339946;28;5414;-75
2024/01/08 00:17:05;;;;;;;2.10;1.13;;;;;;;0.72;62.71;100019.34;330128;28;15813;-75
2024/01/08 00:17:18;;;;;;;2.33;1.20;;;;;;;0.75;62.87;100009.16;337349;28;4652;-75
2024/01/08 00:17:30;;;;;;;2.20;1.05;;;;;;;0.81;62.30;100020.31;338546;28;4955;-75
2024/01/08 00:17:42;;;;;;;2.15;1.17;;;;;;;0.84;62.73;100015.22;332178;28;19328;-75
2024/01/08 00:17:54;;;;;;;2.60;1.30;;;;;;;0.83;62.88;100010.97;338093;28;5869;-76
2024/01/08 00:18:06;;;;;;;2.72;1.30;;;;;;;0.85;62.38;100020.38;334701;28;18131;-75
2024/01/08 00:18:20;;;;;;;1.92;1.10;;;;;;;0.86;61.68;100016.09;338068;28;5978;-76
2024/01/08 00:18:32;;;;;;;1.50;0.95;;;;;;;0.82;61.91;100016.91;334279;28;18187;-77
2024/01/08 00:18:45;;;;;;;1.45;0.90;;;;;;;0.85;62.64;100010.13;337344;28;4942;-76
2024/01/08 00:18:57;;;;;;;1.65;1.00;;;;;;;0.74;61.80;100015.09;335219;28;18369;-76
2024/01/08 00:19:10;;;;;;;2.63;1.10;;;;;;;0.75;62.48;100018.53;340110;28;4583;-75
2024/01/08 00:19:22;;;;;;;2.80;1.10;;;;;;;0.70;62.06;100021.00;334996;28;18380;-76
2024/01/08 00:19:34;;;;;;;1.85;1.13;;;;;;;0.68;61.91;100015.03;338777;28;4693;-77
2024/01/08 00:19:46;;;;;;;1.50;0.95;;;;;;;0.68;62.64;100004.78;334954;28;16724;-76
2024/01/08 00:19:58;;;;;;;1.15;0.77;;;;;;;0.67;62.51;100010.75;334242;28;5404;-76
2024/01/08 00:20:11;;;;;;;1.38;0.90;;;;;;;0.70;62.12;100018.47;342646;28;5308;-77
2024/01/08 00:20:23;;;;;;;2.03;1.02;;;;;;;0.76;63.02;100015.13;339320;28;18141;-76
2024/01/08 00:20:35;;;;;;;1.92;0.98;;;;;;;0.82;62.23;100014.34;341937;28;5751;-76
2024/01/08 00:20:47;;;;;;;1.88;1.00;;;;;;;0.87;62.49;100022.97;336988;28;18091;-76
2024/01/08 00:20:59;;;;;;;1.70;0.90;;;;;;;0.83;62.96;100011.81;340391;28;5487;-77
2024/01/08 00:21:11;;;;;;;1.20;0.75;;;;;;;0.85;62.63;100019.53;338523;28;11270;-76
2024/01/08 00:21:23;;;;;;;1.40;0.77;;;;;;;0.81;62.56;100015.22;339811;28;4812;-76
2024/01/08 00:21:35;;;;;;;1.92;1.05;;;;;;;0.82;62.41;100016.91;333958;28;4583;-76
2024/01/08 00:21:47;;;;;;;1.52;1.15;;;;;;;0.79;62.58;100021.16;337419;28;16198;-76
2024/01/08 00:22:00;;;;;;;1.20;1.10;;;;;;;0.85;62.08;100014.41;340698;28;5053;-76
2024/01/08 00:22:11;;;;;;;1.00;0.90;;;;;;;0.75;62.29;100016.84;341724;28;4762;-76
2024/01/08 00:22:24;;;;;;;1.10;0.90;;;;;;;0.76;62.42;100021.09;337751;28;17965;-76
2024/01/08 00:22:36;;;;;;;1.30;0.85;;;;;;;0.76;61.96;100018.53;340077;28;4718;-76
2024/01/08 00:22:48;;;;;;;1.13;0.75;;;;;;;0.76;62.55;100022.81;336111;28;19095;-76
2024/01/08 00:23:00;;;;;;;0.93;0.63;;;;;;;0.78;61.85;100018.56;334435;28;4692;-76
2024/01/08 00:23:12;;;;;;;1.05;0.77;;;;;;;0.77;62.40;100017.72;341319;28;4715;-76
2024/01/08 00:23:24;;;;;;;1.20;0.77;;;;;;;0.78;62.12;100018.56;339172;28;17242;-76
2024/01/08 00:23:37;;;;;;;2.13;0.90;;;;;;;0.77;63.32;100017.72;339342;28;4910;-77
2024/01/08 00:23:49;;;;;;;2.50;1.00;;;;;;;0.79;62.99;100016.03;337288;28;15056;-76
2024/01/08 00:24:01;;;;;;;2.35;1.00;;;;;;;0.85;62.39;100019.53;341920;28;5172;-76
2024/01/08 00:24:13;;;;;;;1.55;1.02;;;;;;;0.88;62.30;100014.44;340348;28;17930;-76
2024/01/08 00:24:25;;;;;;;2.10;1.05;;;;;;;0.89;62.54;100014.44;342166;28;5298;-76
2024/01/08 00:24:37;;;;;;;1.80;0.93;;;;;;;0.87;62.11;100017.84;334707;28;5318;-76
2024/01/08 00:24:49;;;;;;;1.40;0.80;;;;;;;0.88;62.31;100024.66;336608;28;18059;-76
2024/01/08 00:25:02;;;;;;;1.30;0.90;;;;;;;0.86;62.23;100026.34;337702;28;5789;-76
2024/01/08 00:25:14;;;;;;;1.17;0.82;;;;;;;0.91;61.73;100024.72;337235;28;18075;-76
2024/01/08 00:25:26;;;;;;;1.15;0.80;;;;;;;0.91;62.05;100024.72;342702;28;4630;-76
2024/01/08 00:25:38;;;;;;;1.25;0.90;;;;;;;0.88;61.81;100019.53;337760;28;18175;-77
2024/01/08 00:25:51;;;;;;;1.13;0.82;;;;;;;0.94;61.72;100014.50;336893;28;4509;-76
2024/01/08 00:26:03;;;;;;;1.00;0.85;;;;;;;0.90;61.81;100023.84;340933;28;4604;-77
2024/01/08 00:26:15;;;;;;;1.20;0.90;;;;;;;0.85;61.66;100027.19;337700;28;18089;-76
2024/01/08 00:26:27;;;;;;;1.70;1.00;;;;;;;0.83;61.76;100022.06;341155;28;4612;-76
2024/01/08 00:26:39;;;;;;;1.70;1.05;;;;;;;0.84;62.44;100017.78;340234;28;17989;-76
2024/01/08 00:26:51;;;;;;;1.13;0.90;;;;;;;0.82;62.78;100028.00;341629;28;5262;-76
2024/01/08 00:27:03;;;;;;;1.38;0.90;;;;;;;0.85;62.78;100024.66;336258;28;15922;-76
2024/01/08 00:27:15;;;;;;;1.30;0.90;;;;;;;0.80;62.18;100024.56;338682;28;5323;-76
2024/01/08 00:27:28;;;;;;;1.17;1.00;;;;;;;0.72;62.51;100021.91;334516;28;4562;-76
2024/01/08 00:27:41;;;;;;;2.00;1.20;;;;;;;0.66;61.93;100029.50;336573;28;18219;-76
2024/01/08 00:27:55;;;;;;;2.92;1.15;;;;;;;0.66;62.47;100021.81;337378;28;4728;-76
2024/01/08 00:28:07;;;;;;;2.15;0.93;;;;;;;0.72;63.12;100024.44;336772;28;17851;-76
2024/01/08 00:28:19;;;;;;;2.05;0.73;;;;;;;0.71;63.35;100027.88;339262;28;11511;-76
2024/01/08 00:28:31;;;;;;;1.60;0.80;;;;;;;0.74;63.54;100022.78;337676;28;17915;-76
2024/01/08 00:28:43;;;;;;;1.70;0.90;;;;;;;0.76;63.24;100025.38;340330;28;4722;-76
2024/01/08 00:28:55;;;;;;;1.10;0.90;;;;;;;0.82;63.17;100024.59;335118;28;5926;-76
2024/01/08 00:29:07;;;;;;;1.00;0.80;;;;;;;0.79;62.59;100026.28;340977;28;5727;-76
2024/01/08 00:29:19;;;;;;;1.35;0.82;;;;;;;0.79;62.63;100027.97;338792;28;12228;-76
2024/01/08 00:29:31;;;;;;;1.38;0.80;;;;;;;0.89;62.40;100027.25;339223;28;5446;-76
2024/01/08 00:29:43;;;;;;;1.05;0.80;;;;;;;0.79;62.26;100020.28;340605;28;4503;-76
2024/01/08 00:29:56;;;;;;;1.25;0.90;;;;;;;0.68;62.43;100017.56;338592;28;18411;-76
2024/01/08 00:30:08;;;;;;;1.52;0.90;;;;;;;0.74;63.29;100017.66;340253;28;4554;-76
2024/01/08 00:30:20;;;;;;;1.33;0.80;;;;;;;0.74;62.75;100022.78;336320;28;18718;-76
2024/01/08 00:30:33;;;;;;;1.67;0.90;;;;;;;0.77;62.87;100020.28;341585;28;5074;-76
2024/01/08 00:30:45;;;;;;;1.33;0.82;;;;;;;0.77;62.73;100024.53;338718;28;17940;-77
2024/01/08 00:30:57;;;;;;;1.30;0.98;;;;;;;0.77;62.62;100019.41;341333;28;4659;-76
2024/01/08 00:31:10;;;;;;;1.38;1.02;;;;;;;0.81;62.39;100025.44;337599;28;18068;-76
2024/01/08 00:31:22;;;;;;;1.55;1.20;;;;;;;0.83;62.28;100026.31;338584;28;4944;-76
2024/01/08 00:31:34;;;;;;;1.38;1.15;;;;;;;0.83;62.46;100023.75;339825;28;4724;-76
2024/01/08 00:31:46;;;;;;;1.65;1.25;;;;;;;0.86;61.79;100022.09;332377;28;18481;-76
2024/01/08 00:31:58;;;;;;;1.60;1.15;;;;;;;0.91;61.91;100017.88;340096;28;4684;-76
2024/01/08 00:32:10;;;;;;;1.65;1.02;;;;;;;0.92;61.56;100021.31;336696;28;9269;-76
2024/01/08 00:32:22;;;;;;;1.58;0.80;;;;;;;0.92;61.41;100021.31;339222;28;5466;-76
2024/01/08 00:32:34;;;;;;;1.30;0.80;;;;;;;0.94;61.37;100024.75;339568;28;5020;-77
2024/01/08 00:32:47;;;;;;;1.20;0.90;;;;;;;0.95;61.69;100023.91;335967;28;18038;-76
2024/01/08 00:33:00;;;;;;;0.82;0.80;;;;;;;0.98;62.31;100027.34;339847;28;13328;-76
2024/01/08 00:33:13;;;;;;;1.42;0.88;;;;;;;1.01;61.98;100021.44;337946;28;17905;-76
2024/01/08 00:33:25;;;;;;;1.58;0.90;;;;;;;0.84;61.91;100023.75;342117;28;4553;-76
2024/01/08 00:33:37;;;;;;;1.60;0.90;;;;;;;0.85;62.29;100027.19;336914;28;16840;-76
2024/01/08 00:33:49;;;;;;;1.10;0.80;;;;;;;0.91;61.80;100020.44;340899;28;4693;-76
2024/01/08 00:34:01;;;;;;;1.17;0.80;;;;;;;0.94;62.60;100022.19;338676;28;18099;-75
2024/01/08 00:34:13;;;;;;;1.45;0.82;;;;;;;0.97;62.15;100025.66;341053;28;5391;-76
2024/01/08 00:34:27;;;;;;;1.73;1.10;;;;;;;0.98;62.50;100026.50;333754;28;18244;-77
2024/01/08 00:34:41;;;;;;;1.20;1.00;;;;;;;1.02;61.97;100028.25;340495;28;5044;-75
2024/01/08 00:34:53;;;;;;;1.10;0.80;;;;;;;0.98;61.93;100026.50;338338;28;16417;-76
2024/01/08 00:35:06;;;;;;;1.50;1.00;;;;;;;0.85;61.98;100016.97;337818;28;11415;-76
2024/01/08 00:35:18;;;;;;;1.38;0.85;;;;;;;0.89;62.16;100026.41;339693;28;5554;-76
2024/01/08 00:35:30;;;;;;;0.90;0.73;;;;;;;0.91;62.04;100019.59;340425;28;4548;-76
2024/01/08 00:35:42;;;;;;;1.15;0.82;;;;;;;0.90;62.62;100017.88;337721;28;17638;-76
2024/01/08 00:35:54;;;;;;;1.38;0.93;;;;;;;0.91;61.36;100027.28;340167;28;4765;-76
2024/01/08 00:36:06;;;;;;;1.27;1.10;;;;;;;0.96;61.84;100025.63;333948;28;5184;-75
2024/01/08 00:36:18;;;;;;;1.20;1.00;;;;;;;0.93;62.05;100020.47;339696;28;4730;-76
2024/01/08 00:36:31;;;;;;;1.08;0.82;;;;;;;0.91;61.96;100014.47;338684;28;6843;-76
2024/01/08 00:36:43;;;;;;;1.42;0.88;;;;;;;0.97;62.04;100025.66;335495;28;18627;-77
2024/01/08 00:36:55;;;;;;;1.50;0.95;;;;;;;0.92;61.84;100021.31;338609;28;5689;-75
2024/01/08 00:37:07;;;;;;;1.42;0.98;;;;;;;0.90;62.22;100022.97;335669;28;18130;-76
2024/01/08 00:37:19;;;;;;;1.13;0.90;;;;;;;0.96;62.84;100025.63;337631;28;5489;-76
2024/01/08 00:37:35;;;;;;;1.10;0.90;;;;;;;0.98;62.37;100023.94;337891;28;5190;-76
2024/01/08 00:37:47;;;;;;;1.88;1.00;;;;;;;0.95;62.31;100026.47;335742;28;17905;-76
2024/01/08 00:37:59;;;;;;;1.98;1.05;;;;;;;0.97;62.60;100024.78;333052;28;19135;-76
2024/01/08 00:38:12;;;;;;;1.08;0.88;;;;;;;1.02;61.87;100023.13;337756;28;4556;-76
2024/01/08 00:38:24;;;;;;;1.13;0.95;;;;;;;0.96;61.63;100017.94;335456;28;17881;-76
2024/01/08 00:38:36;;;;;;;1.10;0.93;;;;;;;0.92;61.28;100023.88;338232;28;4747;-75
2024/01/08 00:38:48;;;;;;;0.80;0.70;;;;;;;0.95;61.46;100026.47;335509;28;13389;-76
2024/01/08 00:39:00;;;;;;;1.02;0.82;;;;;;;0.92;62.21;100022.16;334180;28;4761;-76
2024/01/08 00:39:12;;;;;;;1.17;0.95;;;;;;;0.95;62.32;100021.34;336980;28;13557;-76
2024/01/08 00:39:25;;;;;;;1.05;0.85;;;;;;;0.90;61.57;100017.88;339603;28;5592;-76
2024/01/08 00:39:38;;;;;;;1.05;0.85;;;;;;;0.85;61.63;100024.66;336076;28;15994;-76
2024/01/08 00:39:50;;;;;;;1.20;1.10;;;;;;;0.85;62.05;100028.06;339697;28;5250;-76
2024/01/08 00:40:04;;;;;;;1.25;1.15;;;;;;;0.85;62.98;100022.09;340728;28;5221;-75
2024/01/08 00:40:16;;;;;;;2.03;0.90;;;;;;;0.86;62.73;100022.09;337794;28;17840;-76
2024/01/08 00:40:29;;;;;;;2.23;0.97;;;;;;;0.90;62.84;100022.97;337084;28;13723;-76
2024/01/08 00:40:41;;;;;;;1.50;1.02;;;;;;;0.95;63.05;100021.34;338552;28;6092;-76
2024/01/08 00:40:53;;;;;;;1.17;0.98;;;;;;;0.98;62.55;100021.38;336086;28;17787;-76
2024/01/08 00:41:06;;;;;;;1.23;0.90;;;;;;;1.00;62.67;100019.69;338145;28;4552;-76
2024/01/08 00:41:18;;;;;;;1.67;0.95;;;;;;;1.02;62.44;100023.13;336886;28;4593;-77
2024/01/08 00:41:30;;;;;;;1.77;1.00;;;;;;;1.01;62.30;100024.00;337722;28;4800;-76
2024/01/08 00:41:42;;;;;;;1.30;0.90;;;;;;;1.02;62.12;100023.13;338463;28;5537;-76
2024/01/08 00:41:54;;;;;;;1.08;0.80;;;;;;;1.04;62.45;100016.31;334503;28;13444;-76
2024/01/08 00:42:06;;;;;;;1.05;0.70;;;;;;;0.86;62.58;100021.22;336674;28;5133;-76
2024/01/08 00:42:18;;;;;;;1.10;0.80;;;;;;;0.78;62.19;100024.53;332844;28;16328;-76
2024/01/08 00:42:30;;;;;;;1.27;0.88;;;;;;;0.77;62.68;100020.28;336764;28;4623;-76
2024/01/08 00:42:42;;;;;;;1.25;0.90;;;;;;;0.73;62.66;100023.63;337651;28;4825;-76
2024/01/08 00:42:55;;;;;;;1.33;0.90;;;;;;;0.81;62.23;100025.44;334523;28;17880;-76
2024/01/08 00:43:07;;;;;;;1.52;0.90;;;;;;;0.84;63.03;100022.91;339529;28;4690;-76
2024/01/08 00:43:19;;;;;;;2.03;1.13;;;;;;;0.87;62.76;100023.81;336752;28;18267;-76
2024/01/08 00:43:31;;;;;;;1.70;1.20;;;;;;;0.89;62.93;100026.41;338470;28;4769;-77
2024/01/08 00:43:43;;;;;;;1.42;1.08;;;;;;;0.90;62.61;100022.97;338874;28;5408;-76
2024/01/08 00:43:55;;;;;;;0.85;0.82;;;;;;;0.84;62.11;100022.91;335848;28;18147;-77
2024/01/08 00:44:07;;;;;;;1.50;0.90;;;;;;;0.81;62.32;100028.00;339968;28;4534;-76
2024/01/08 00:44:19;;;;;;;1.75;0.98;;;;;;;0.85;62.18;100019.53;337197;28;18020;-76
2024/01/08 00:44:31;;;;;;;2.10;1.00;;;;;;;0.87;62.98;100017.84;340096;28;5333;-77
2024/01/08 00:44:43;;;;;;;1.67;1.00;;;;;;;0.89;63.08;100022.13;341314;28;4771;-76
2024/01/08 00:44:55;;;;;;;1.35;1.00;;;;;;;0.94;62.37;100020.47;338693;28;5249;-77
2024/01/08 00:45:07;;;;;;;1.42;1.00;;;;;;;0.96;62.42;100023.06;340987;28;4751;-76
2024/01/08 00:45:20;;;;;;;1.20;1.00;;;;;;;1.01;62.33;100016.31;336820;28;17919;-76
2024/01/08 00:45:32;;;;;;;1.05;0.85;;;;;;;1.04;61.92;100026.56;340337;28;5968;-76
2024/01/08 00:45:44;;;;;;;1.55;1.00;;;;;;;1.05;62.42;100014.63;339170;28;5620;-76
2024/01/08 00:45:56;;;;;;;1.70;1.02;;;;;;;1.03;62.26;100026.53;341174;28;5482;-76
2024/01/08 00:46:08;;;;;;;1.52;1.00;;;;;;;1.04;62.32;100018.88;336753;28;4547;-77
2024/01/08 00:46:20;;;;;;;1.23;0.90;;;;;;;1.08;62.62;100028.31;337828;28;4652;-76
2024/01/08 00:46:32;;;;;;;1.25;0.85;;;;;;;1.04;62.18;100025.72;340716;28;4657;-76
2024/01/08 00:46:44;;;;;;;1.40;0.88;;;;;;;1.06;62.37;100018.91;338547;28;12623;-76
2024/01/08 00:46:56;;;;;;;1.35;0.85;;;;;;;1.07;62.50;100023.22;341605;28;4579;-76
2024/01/08 00:47:08;;;;;;;1.48;0.93;;;;;;;1.09;62.29;100022.38;341332;28;5061;-76
2024/01/08 00:47:20;;;;;;;1.60;1.08;;;;;;;1.10;62.21;100016.41;337459;28;18516;-76
2024/01/08 00:47:33;;;;;;;1.40;0.93;;;;;;;1.10;62.23;100016.41;340917;28;4741;-76
2024/01/08 00:47:46;;;;;;;1.20;0.80;;;;;;;1.12;62.25;100024.09;332630;28;18823;-76
2024/01/08 00:47:58;;;;;;;1.40;0.73;;;;;;;1.11;62.25;100022.41;341136;28;4576;-76
2024/01/08 00:48:10;;;;;;;1.75;0.80;;;;;;;1.15;62.06;100024.16;338106;28;5435;-76
2024/01/08 00:48:22;;;;;;;1.80;0.90;;;;;;;1.13;62.57;100024.13;334334;28;16701;-76
2024/01/08 00:48:34;;;;;;;1.05;0.80;;;;;;;1.10;62.57;100018.97;339768;28;6038;-76
2024/01/08 00:48:46;;;;;;;1.27;0.90;;;;;;;1.12;62.55;100027.50;335337;28;14955;-76
2024/01/08 00:48:58;;;;;;;1.15;0.90;;;;;;;1.14;62.48;100018.16;338845;28;4525;-76
2024/01/08 00:49:10;;;;;;;1.13;0.90;;;;;;;1.11;62.00;100018.13;330300;28;5976;-77
2024/01/08 00:49:22;;;;;;;1.20;0.88;;;;;;;1.13;62.38;100021.56;339792;28;6888;-76
2024/01/08 00:49:34;;;;;;;1.30;0.80;;;;;;;1.08;62.73;100023.19;339775;28;5445;-76
2024/01/08 00:49:46;;;;;;;1.52;0.88;;;;;;;1.05;61.59;100024.84;337048;28;18188;-76
2024/01/08 00:49:59;;;;;;;1.63;1.08;;;;;;;1.01;62.41;100021.44;340300;28;5558;-76
2024/01/08 00:50:13;;;;;;;1.70;1.00;;;;;;;1.04;62.37;100015.47;335961;28;16692;-76
2024/01/08 00:50:26;;;;;;;1.30;0.90;;;;;;;0.91;62.15;100017.03;337164;28;16498;-76
2024/01/08 00:50:38;;;;;;;1.30;0.80;;;;;;;0.92;61.84;100022.16;340318;28;4518;-76
2024/01/08 00:50:52;;;;;;;1.42;0.93;;;;;;;0.93;62.10;100018.78;338214;28;16283;-76
2024/01/08 00:51:04;;;;;;;1.10;0.80;;;;;;;0.94;62.53;100019.63;341199;28;5407;-76
2024/01/08 00:51:16;;;;;;;0.80;0.68;;;;;;;0.95;63.04;100011.13;337774;28;14419;-76
2024/01/08 00:51:28;;;;;;;1.00;0.80;;;;;;;0.97;62.09;100012.00;339748;28;4534;-76
2024/01/08 00:51:41;;;;;;;1.50;0.90;;;;;;;0.95;62.53;100017.09;338528;28;18371;-76
2024/01/08 00:51:53;;;;;;;1.45;0.85;;;;;;;0.99;63.03;100012.88;335758;28;18151;-76
2024/01/08 00:52:05;;;;;;;1.02;0.77;;;;;;;1.02;62.09;100017.16;332434;28;4724;-76
2024/01/08 00:52:17;;;;;;;0.80;0.70;;;;;;;1.02;61.51;100018.00;334753;28;18284;-76
2024/01/08 00:52:29;;;;;;;1.20;0.88;;;;;;;1.02;62.38;100012.88;338548;28;5408;-76
2024/01/08 00:52:41;;;;;;;1.45;0.95;;;;;;;1.02;61.92;100018.00;336068;28;16403;-76
2024/01/08 00:52:53;;;;;;;1.20;0.80;;;;;;;1.00;62.32;100012.00;339569;28;4604;-76
2024/01/08 00:53:06;;;;;;;1.38;0.85;;;;;;;1.00;62.55;100017.97;338298;28;5735;-76
2024/01/08 00:53:18;;;;;;;1.58;0.90;;;;;;;1.03;62.55;100023.97;335763;28;18356;-76
2024/01/08 00:53:30;;;;;;;1.50;0.98;;;;;;;1.03;63.10;100013.75;337171;28;4629;-76
2024/01/08 00:53:42;;;;;;;1.58;0.88;;;;;;;1.05;62.69;100015.50;334231;28;5525;-76
2024/01/08 00:53:56;;;;;;;2.40;0.90;;;;;;;1.07;62.69;100018.94;337843;28;4614;-76
2024/01/08 00:54:08;;;;;;;2.28;1.00;;;;;;;1.04;62.01;100011.22;338241;28;18243;-76
2024/01/08 00:54:20;;;;;;;1.67;1.02;;;;;;;1.04;61.67;100016.31;339061;28;4771;-77
2024/01/08 00:54:32;;;;;;;1.20;0.90;;;;;;;1.04;62.33;100011.22;336554;28;13470;-76
2024/01/08 00:54:44;;;;;;;1.27;0.90;;;;;;;1.06;62.18;100016.34;339734;28;4576;-76
2024/01/08 00:55:01;;;;;;;1.00;0.70;;;;;;;0.98;62.17;100009.44;338223;28;5529;-76
2024/01/08 00:55:14;;;;;;;1.30;0.95;;;;;;;0.97;62.22;100019.66;336804;28;17710;-76
2024/01/08 00:55:26;;;;;;;1.60;1.00;;;;;;;0.91;62.56;100011.91;339705;28;5380;-76
2024/01/08 00:55:38;;;;;;;1.98;0.90;;;;;;;0.96;62.31;100012.81;337647;28;18159;-75
2024/01/08 00:55:50;;;;;;;2.20;0.90;;;;;;;0.96;63.07;100012.81;340001;28;5387;-76
2024/01/08 00:56:02;;;;;;;1.60;0.82;;;;;;;0.99;62.62;100011.16;340257;28;4642;-76
2024/01/08 00:56:15;;;;;;;1.13;0.93;;;;;;;0.97;62.98;100010.28;335681;28;17830;-77
2024/01/08 00:56:27;;;;;;;1.23;1.00;;;;;;;0.99;62.58;100013.72;339826;28;4548;-76
2024/01/08 00:56:39;;;;;;;3.30;1.13;;;;;;;1.02;62.49;100018.00;338020;28;18282;-76
2024/01/08 00:56:51;;;;;;;3.20;1.00;;;;;;;0.94;61.87;100015.34;340604;28;4534;-77
2024/01/08 00:57:03;;;;;;;2.22;0.93;;;;;;;0.98;62.61;100021.38;338203;28;17160;-76
2024/01/08 00:57:15;;;;;;;1.45;0.98;;;;;;;1.02;62.00;100012.03;340389;28;5431;-76
2024/01/08 00:57:27;;;;;;;1.40;1.00;;;;;;;0.82;62.72;100015.19;341843;28;5221;-76
2024/01/08 00:57:39;;;;;;;1.20;1.00;;;;;;;0.85;62.44;100014.41;338064;28;18349;-76
2024/01/08 00:57:52;;;;;;;1.00;0.90;;;;;;;0.84;62.59;100016.09;335320;28;4542;-76
2024/01/08 00:58:03;;;;;;;0.77;0.77;;;;;;;0.75;62.49;100009.16;335490;28;18257;-77
2024/01/08 00:58:16;;;;;;;0.93;0.80;;;;;;;0.64;62.39;100010.69;339205;28;4739;-77
2024/01/08 00:58:28;;;;;;;1.05;0.80;;;;;;;0.46;62.20;100018.13;339652;28;4680;-76
2024/01/08 00:58:41;;;;;;;1.27;0.95;;;;;;;0.50;63.07;100015.63;336795;28;17301;-76
2024/01/08 00:58:56;;;;;;;1.35;1.00;;;;;;;0.59;62.79;100012.34;337423;28;16017;-76